Hlavní strana
METAR-TAF:

METAR-TAF

Letiště :

Liepāja, Lotyšsko

zeměpisná šířka: 56-31N, zeměpisná délka: 021-05E, výška: 5 m

Aktuální stav počasí

Zpráva byla vytvořena před 19 minutami, v 08:20 UTC
Severní vítr 11 kt, proměnlivý mezi severozápadním a severovýchodním
Teplota 15°C
Vlhkost vzduchu 44%
Tlak 1027 hPa
Viditelnost 10 km a více

METAR: EVLA 290820Z AUTO 36011KT 320V040 9999 NCD 15/03 Q1027

Čas: 11:39 (08:39 UTC)

Předpověď počasí

Zpráva byla vytvořena před 3 hodinami a 35 minutami, v 05:04 UTC
Předpověď platná od 29 v 06 UTC do 30 v 06 UTC
Severní vítr 7 kt
Viditelnost 10 km a více
Žádná oblačnost pod 1500 m, nevyskytují se cumulonimby.
Dočasný
od 29 v 06 UTC do 29 v 09 UTC
Severní vítr 15 kt s nárazy do 28 kt
Dočasný
od 29 v 09 UTC do 29 v 15 UTC
Severní vítr 15 kt s nárazy do 30 kt

TAF: EVLA 290504Z 2906/3006 35007KT CAVOK TEMPO 2906/2909 36015G28KT TEMPO 2909/2915 35015G30KT

Stav a předpovědi počasí z více než 4 000 letišť (zprávy METAR a TAF).

Červené a žluté tečky na mapě představují dostupné meteorologické stanice.

Když kurzor umístíte na tečku, zobrazí se název stanice.

Pak kliknutím zobrazíte stav a předpověď počasí.

Chcete-li změnit mapu, kliknutím na zelené tlačítko se znaménkem +mapu přiblížíte, kliknutím na zelené tlačítko se znaménkem – mapu oddálíte a kliknutím na zelené šipky přejdete na sousední mapy.


METAR-TAF: